Time;durP1;ratioP1;P1;durP2;ratioP2;P2;SDS_P1;SDS_P2;PMS_P1;PMS_P2;Temp;Humidity;BMP_temperature;BMP_pressure;BME280_temperature;BME280_humidity;BME280_pressure;Samples;Min_cycle;Max_cycle;Signal;HPM_P1;HPM_P2
2023/09/20 18:18:13;;;;;;;1.00;0.60;;;21.00;99.90;;;;;;4900962;29;20298;-78
2023/09/20 18:20:40;;;;;;;2.13;1.10;;;21.00;99.90;;;;;;4895921;29;20297;-73
2023/09/20 18:23:09;;;;;;;1.67;0.60;;;21.00;99.90;;;;;;4895751;29;20234;-73
2023/09/20 18:25:38;;;;;;;0.95;0.60;;;21.00;99.90;;;;;;4895590;29;20238;-73
2023/09/20 18:28:08;;;;;;;1.08;0.50;;;21.00;99.90;;;;;;4896167;29;20244;-75
2023/09/20 18:30:35;;;;;;;1.05;0.70;;;21.10;99.90;;;;;;4877177;29;20639;-72
2023/09/20 18:33:02;;;;;;;1.67;0.65;;;21.10;99.90;;;;;;4881370;29;20330;-80
2023/09/20 18:35:34;;;;;;;1.02;0.80;;;21.00;99.90;;;;;;4899360;29;20754;-71
2023/09/20 18:38:00;;;;;;;3.90;0.98;;;21.00;99.90;;;;;;4898716;29;20246;-81
2023/09/20 18:40:27;;;;;;;1.13;0.80;;;21.00;99.90;;;;;;4899221;29;20234;-72
2023/09/20 18:42:59;;;;;;;0.93;0.70;;;21.00;99.90;;;;;;4898647;29;20697;-71
2023/09/20 18:45:26;;;;;;;3.55;0.75;;;21.00;99.90;;;;;;4900741;29;20340;-70
2023/09/20 18:47:53;;;;;;;1.40;0.80;;;20.90;99.90;;;;;;4907359;29;20245;-75
2023/09/20 18:50:23;;;;;;;2.40;0.90;;;20.90;99.90;;;;;;4899128;29;20253;-76
2023/09/20 18:52:51;;;;;;;0.82;0.63;;;20.80;99.90;;;;;;4898659;29;20569;-71
2023/09/20 18:55:19;;;;;;;1.48;0.80;;;20.80;99.90;;;;;;4898618;29;20248;-70
2023/09/20 18:57:51;;;;;;;2.65;0.98;;;20.70;99.90;;;;;;4898957;29;20210;-70
2023/09/20 19:00:18;;;;;;;2.33;0.80;;;20.70;99.90;;;;;;4898465;29;20581;-73
2023/09/20 19:02:45;;;;;;;2.05;0.80;;;20.70;99.90;;;;;;4898651;29;20245;-72
2023/09/20 19:05:14;;;;;;;1.23;0.77;;;20.60;99.90;;;;;;4898699;29;20277;-71
2023/09/20 19:07:43;;;;;;;0.90;0.63;;;20.60;99.90;;;;;;4899170;29;20297;-72
2023/09/20 19:10:12;;;;;;;2.13;0.90;;;20.60;99.90;;;;;;4900364;29;20214;-74
2023/09/20 19:12:39;;;;;;;2.28;0.90;;;20.60;99.90;;;;;;4900191;29;20212;-72
2023/09/20 19:15:08;;;;;;;1.65;0.90;;;20.70;99.90;;;;;;4900164;29;20233;-72
2023/09/20 19:17:36;;;;;;;1.40;0.70;;;20.60;99.90;;;;;;4899960;29;20225;-73
2023/09/20 19:20:11;;;;;;;1.05;0.80;;;20.60;99.90;;;;;;4899445;29;20216;-76
2023/09/20 19:22:39;;;;;;;6.25;0.93;;;20.60;99.90;;;;;;4899594;29;20257;-74
2023/09/20 19:25:06;;;;;;;1.00;0.68;;;20.60;99.90;;;;;;4899779;29;20344;-72
2023/09/20 19:27:35;;;;;;;4.45;1.23;;;20.60;99.90;;;;;;4899897;29;20268;-72
2023/09/20 19:30:04;;;;;;;2.75;1.05;;;20.50;99.90;;;;;;4899832;29;20206;-72
2023/09/20 19:32:32;;;;;;;1.50;0.90;;;20.60;99.90;;;;;;4899655;29;20214;-72
2023/09/20 19:35:00;;;;;;;2.13;0.93;;;20.70;99.90;;;;;;4899804;29;20238;-72
2023/09/20 19:37:32;;;;;;;1.88;0.90;;;20.70;99.90;;;;;;4899538;29;20664;-73
2023/09/20 19:39:59;;;;;;;1.30;0.90;;;20.60;99.90;;;;;;4899817;29;20226;-75
2023/09/20 19:42:27;;;;;;;2.13;1.10;;;20.60;99.90;;;;;;4899589;29;20697;-74
2023/09/20 19:44:55;;;;;;;2.33;1.00;;;20.50;99.90;;;;;;4899059;29;20260;-72
2023/09/20 19:47:22;;;;;;;1.92;0.90;;;20.40;99.90;;;;;;4899616;29;20209;-72
2023/09/20 19:49:49;;;;;;;2.95;1.15;;;20.50;99.90;;;;;;4899397;29;20234;-73
2023/09/20 19:52:17;;;;;;;2.40;1.50;;;20.40;99.90;;;;;;4899366;29;20250;-72
2023/09/20 19:54:44;;;;;;;2.28;0.90;;;20.30;99.90;;;;;;4899174;29;20233;-72
2023/09/20 19:57:12;;;;;;;2.70;1.17;;;20.30;99.90;;;;;;4899339;29;20555;-72
2023/09/20 19:59:39;;;;;;;2.65;1.10;;;20.20;99.90;;;;;;4899301;29;20237;-72
2023/09/20 20:02:07;;;;;;;2.50;1.15;;;20.20;99.90;;;;;;4899581;29;20238;-72
2023/09/20 20:04:34;;;;;;;2.70;0.82;;;20.20;99.90;;;;;;4899134;29;20276;-71
2023/09/20 20:07:01;;;;;;;1.52;0.98;;;20.10;99.90;;;;;;4899343;29;20320;-72
2023/09/20 20:09:28;;;;;;;1.80;1.10;;;20.10;99.90;;;;;;4899262;29;20253;-72
2023/09/20 20:11:55;;;;;;;4.22;1.35;;;20.00;99.90;;;;;;4898964;29;20646;-71
2023/09/20 20:14:22;;;;;;;2.15;1.10;;;20.00;99.90;;;;;;4899004;29;20289;-72
2023/09/20 20:16:49;;;;;;;1.65;0.80;;;20.10;99.90;;;;;;4899075;29;20269;-72
2023/09/20 20:19:17;;;;;;;1.42;0.90;;;20.00;99.90;;;;;;4898756;29;20634;-74
2023/09/20 20:21:45;;;;;;;1.17;0.70;;;20.00;99.90;;;;;;4899258;29;20306;-74
2023/09/20 20:24:14;;;;;;;2.00;1.00;;;20.00;99.90;;;;;;4898554;29;20257;-74
2023/09/20 20:26:41;;;;;;;2.65;0.88;;;20.00;99.90;;;;;;4898704;29;20238;-72
2023/09/20 20:29:09;;;;;;;4.72;1.17;;;20.00;99.90;;;;;;4898731;29;20218;-72
2023/09/20 20:31:38;;;;;;;2.63;1.20;;;19.90;99.90;;;;;;4898661;29;20673;-74
2023/09/20 20:34:05;;;;;;;1.65;1.00;;;19.90;99.90;;;;;;4898525;29;20289;-72
2023/09/20 20:36:36;;;;;;;2.38;0.80;;;19.90;99.90;;;;;;4898840;29;20604;-72
2023/09/20 20:39:10;;;;;;;1.55;0.90;;;20.00;99.90;;;;;;4898528;29;20753;-74
2023/09/20 20:41:37;;;;;;;2.97;1.20;;;19.90;99.90;;;;;;4898442;29;20206;-72
2023/09/20 20:44:05;;;;;;;1.77;0.70;;;19.90;99.90;;;;;;4898219;29;20336;-72
2023/09/20 20:46:33;;;;;;;2.85;1.17;;;19.90;99.90;;;;;;4898642;29;20242;-72
2023/09/20 20:49:02;;;;;;;3.60;1.35;;;19.90;99.90;;;;;;4898589;29;20302;-72
2023/09/20 20:51:29;;;;;;;1.48;0.98;;;19.90;99.90;;;;;;4898333;29;20326;-74
2023/09/20 20:53:57;;;;;;;2.00;1.00;;;19.90;99.90;;;;;;4898149;29;20266;-72
2023/09/20 20:56:26;;;;;;;1.48;1.08;;;19.90;99.90;;;;;;4898027;29;20270;-74
2023/09/20 20:58:55;;;;;;;3.10;0.95;;;19.90;99.90;;;;;;4898351;29;20320;-72
2023/09/20 21:01:22;;;;;;;1.95;0.90;;;19.90;99.90;;;;;;4898335;29;20210;-72
